Time;durP1;ratioP1;P1;durP2;ratioP2;P2;SDS_P1;SDS_P2;PMS_P1;PMS_P2;Temp;Humidity;BMP_temperature;BMP_pressure;BME280_temperature;BME280_humidity;BME280_pressure;Samples;Min_cycle;Max_cycle;Signal;HPM_P1;HPM_P2
2024/03/21 00:00:46;;;;;;;6.60;4.60;;;11.00;75.50;;;;;;5009834;28;20182;-71
2024/03/21 00:03:11;;;;;;;9.63;5.70;;;11.10;75.40;;;;;;5012102;28;20236;-72
2024/03/21 00:05:37;;;;;;;11.93;5.40;;;11.10;75.20;;;;;;5011529;28;20636;-72
2024/03/21 00:08:03;;;;;;;8.50;4.80;;;11.00;75.40;;;;;;5012236;28;20646;-70
2024/03/21 00:10:29;;;;;;;9.50;4.83;;;11.00;75.50;;;;;;5011136;28;20181;-71
2024/03/21 00:12:54;;;;;;;10.30;5.33;;;11.00;75.50;;;;;;5003849;28;20441;-71
2024/03/21 00:15:20;;;;;;;7.57;5.07;;;11.00;75.80;;;;;;5012173;28;20659;-73
2024/03/21 00:17:47;;;;;;;9.30;5.40;;;10.90;75.80;;;;;;5011930;28;20178;-72
2024/03/21 00:20:14;;;;;;;10.07;6.03;;;10.80;76.10;;;;;;5011688;28;20428;-71
2024/03/21 00:22:42;;;;;;;10.97;5.20;;;10.80;76.20;;;;;;5005159;28;20538;-71
2024/03/21 00:25:08;;;;;;;9.13;5.70;;;10.80;76.40;;;;;;5011886;28;20432;-70
2024/03/21 00:27:35;;;;;;;11.83;6.20;;;10.70;76.40;;;;;;5011707;28;20439;-71
2024/03/21 00:30:04;;;;;;;9.20;5.80;;;10.80;76.50;;;;;;5011143;28;20448;-71
2024/03/21 00:32:30;;;;;;;8.83;6.13;;;10.80;75.70;;;;;;5005116;28;21164;-71
2024/03/21 00:34:56;;;;;;;11.37;6.10;;;10.70;75.80;;;;;;5014180;28;20417;-71
2024/03/21 00:37:22;;;;;;;10.43;5.77;;;10.60;76.20;;;;;;5016826;28;20441;-72
2024/03/21 00:39:48;;;;;;;11.90;5.30;;;10.60;76.70;;;;;;5018440;28;20217;-72
2024/03/21 00:42:15;;;;;;;10.53;6.37;;;10.50;76.80;;;;;;5004227;28;20321;-70
2024/03/21 00:44:41;;;;;;;9.10;5.80;;;10.60;76.80;;;;;;5011948;28;20444;-72
2024/03/21 00:47:07;;;;;;;10.27;5.67;;;10.60;76.70;;;;;;5011613;28;20428;-70
2024/03/21 00:49:33;;;;;;;9.37;5.40;;;10.60;76.70;;;;;;5004311;28;20429;-70
2024/03/21 00:51:59;;;;;;;11.23;6.37;;;10.50;76.80;;;;;;5007730;28;20526;-70
2024/03/21 00:54:25;;;;;;;10.17;5.57;;;10.40;77.10;;;;;;5005632;28;20945;-71
2024/03/21 00:56:51;;;;;;;7.30;5.40;;;10.50;77.40;;;;;;5011332;28;20213;-70
2024/03/21 00:59:16;;;;;;;10.07;6.13;;;10.40;77.60;;;;;;5011670;28;20481;-70
2024/03/21 01:01:42;;;;;;;8.00;5.20;;;10.40;77.70;;;;;;5007996;28;20234;-70
2024/03/21 01:04:07;;;;;;;10.90;5.60;;;10.40;77.80;;;;;;5009776;28;20711;-72
2024/03/21 01:06:34;;;;;;;8.43;5.43;;;10.40;78.00;;;;;;5010631;28;20189;-70
2024/03/21 01:08:59;;;;;;;9.20;5.30;;;10.40;78.00;;;;;;5010697;28;20189;-70
2024/03/21 01:11:25;;;;;;;10.17;5.50;;;10.40;78.10;;;;;;5002914;28;20837;-70
2024/03/21 01:13:51;;;;;;;9.93;5.13;;;10.30;78.30;;;;;;5009622;28;20205;-70
2024/03/21 01:16:16;;;;;;;8.20;5.50;;;10.30;78.30;;;;;;5009197;28;20425;-70
2024/03/21 01:18:42;;;;;;;8.23;5.17;;;10.30;78.40;;;;;;5009295;28;20204;-70
2024/03/21 01:21:08;;;;;;;8.27;4.90;;;10.30;78.30;;;;;;5003543;28;20210;-71
2024/03/21 01:23:34;;;;;;;7.20;4.70;;;10.30;78.30;;;;;;5007463;28;20217;-71
2024/03/21 01:26:04;;;;;;;6.13;4.97;;;10.30;78.10;;;;;;5010584;28;20417;-71
2024/03/21 01:28:30;;;;;;;7.50;5.00;;;10.30;78.10;;;;;;5010850;28;20417;-70
2024/03/21 01:30:59;;;;;;;6.43;4.47;;;10.40;78.30;;;;;;5001432;28;20456;-71
2024/03/21 01:33:26;;;;;;;14.00;5.73;;;10.40;77.80;;;;;;5004670;28;20957;-70
2024/03/21 01:35:51;;;;;;;8.63;4.23;;;10.40;77.80;;;;;;5010024;28;20421;-70
2024/03/21 01:38:17;;;;;;;8.67;4.67;;;10.30;78.00;;;;;;5013042;28;20845;-72
2024/03/21 01:40:43;;;;;;;8.30;4.70;;;10.40;77.80;;;;;;5012693;28;20186;-67
2024/03/21 01:43:26;;;;;;;11.00;5.80;;;10.40;77.10;;;;;;5010643;28;20205;-72
2024/03/21 01:46:19;;;;;;;8.27;4.63;;;10.40;77.00;;;;;;5014739;28;20209;-70
2024/03/21 01:48:51;;;;;;;6.97;4.70;;;10.40;76.80;;;;;;5014299;28;20417;-69
2024/03/21 01:51:23;;;;;;;8.87;5.60;;;10.30;77.60;;;;;;5012162;28;20457;-69
2024/03/21 01:53:52;;;;;;;7.10;4.83;;;10.30;77.70;;;;;;5015170;28;20432;-68
2024/03/21 01:56:18;;;;;;;7.03;5.00;;;10.40;77.70;;;;;;5011524;28;20443;-71
2024/03/21 01:58:44;;;;;;;8.90;4.83;;;10.30;77.80;;;;;;5011137;28;20432;-70
2024/03/21 02:01:24;;;;;;;6.97;4.90;;;10.40;78.10;;;;;;5008143;28;20209;-70
2024/03/21 02:03:52;;;;;;;5.33;4.00;;;10.40;78.40;;;;;;5011131;28;21112;-72
2024/03/21 02:06:21;;;;;;;9.07;4.30;;;10.40;78.40;;;;;;5006517;28;20427;-72
2024/03/21 02:08:47;;;;;;;7.23;4.23;;;10.40;78.30;;;;;;5007576;28;20837;-71
2024/03/21 02:11:13;;;;;;;7.43;4.47;;;10.40;78.40;;;;;;5006057;28;20472;-69
2024/03/21 02:13:39;;;;;;;7.60;4.50;;;10.40;78.60;;;;;;5008372;28;20444;-72
2024/03/21 02:16:05;;;;;;;11.67;5.10;;;10.40;78.70;;;;;;5013076;28;20428;-71
2024/03/21 02:18:31;;;;;;;9.00;4.20;;;10.40;78.70;;;;;;5011870;28;20425;-71
2024/03/21 02:20:56;;;;;;;6.20;4.30;;;10.50;78.40;;;;;;5007596;28;20816;-72
2024/03/21 02:23:22;;;;;;;6.63;4.17;;;10.50;78.40;;;;;;5007171;28;20229;-73
2024/03/21 02:25:48;;;;;;;8.67;4.77;;;10.60;78.40;;;;;;5016263;28;20273;-70
2024/03/21 02:28:14;;;;;;;6.57;4.43;;;10.60;78.10;;;;;;5014355;28;20650;-71
2024/03/21 02:30:40;;;;;;;7.73;4.40;;;10.70;78.00;;;;;;5008674;28;20478;-71
2024/03/21 02:33:05;;;;;;;9.73;5.17;;;10.70;78.00;;;;;;5003994;28;20428;-70
2024/03/21 02:35:31;;;;;;;7.10;4.50;;;10.70;78.00;;;;;;5009828;28;20331;-71
2024/03/21 02:37:57;;;;;;;7.33;4.10;;;10.70;77.70;;;;;;5007583;28;20186;-72
2024/03/21 02:40:22;;;;;;;6.70;4.43;;;10.70;77.60;;;;;;5010033;28;20436;-69
2024/03/21 02:42:48;;;;;;;7.77;4.50;;;10.70;77.30;;;;;;5002685;28;20218;-72
2024/03/21 02:45:14;;;;;;;10.37;5.13;;;10.80;77.10;;;;;;5015314;28;20745;-70
2024/03/21 02:47:39;;;;;;;7.20;4.77;;;10.80;77.10;;;;;;5018094;28;20222;-71
2024/03/21 02:50:05;;;;;;;8.10;4.60;;;10.90;77.00;;;;;;5018178;28;20198;-72
2024/03/21 02:52:31;;;;;;;8.50;4.90;;;10.90;76.80;;;;;;5010754;28;20213;-71
2024/03/21 02:54:57;;;;;;;9.50;4.63;;;10.80;76.80;;;;;;5014148;28;20419;-72
2024/03/21 02:57:22;;;;;;;5.47;4.00;;;10.80;76.80;;;;;;5015938;28;20213;-71
2024/03/21 02:59:48;;;;;;;6.03;4.50;;;10.80;76.80;;;;;;5013883;28;20613;-71
2024/03/21 03:02:15;;;;;;;6.00;4.13;;;10.80;76.80;;;;;;5003849;28;20217;-72
2024/03/21 03:04:40;;;;;;;7.50;4.87;;;10.80;77.10;;;;;;5010625;28;20190;-71
2024/03/21 03:07:08;;;;;;;8.83;4.73;;;10.80;77.30;;;;;;5011154;28;20790;-71
2024/03/21 03:09:33;;;;;;;5.20;4.23;;;10.90;77.40;;;;;;5013857;28;20186;-71
2024/03/21 03:11:59;;;;;;;8.93;4.60;;;10.90;77.40;;;;;;5006602;28;20459;-71
2024/03/21 03:14:24;;;;;;;6.47;4.30;;;10.90;77.60;;;;;;5004343;28;20683;-71
2024/03/21 03:16:50;;;;;;;6.80;3.93;;;11.00;77.60;;;;;;5010192;28;20193;-71
2024/03/21 03:19:17;;;;;;;7.13;4.40;;;11.00;77.60;;;;;;5010417;28;20264;-72
2024/03/21 03:21:43;;;;;;;10.67;5.00;;;11.00;77.60;;;;;;5010710;28;20655;-70
2024/03/21 03:24:09;;;;;;;6.90;4.23;;;11.10;77.60;;;;;;5016505;28;20471;-71
2024/03/21 03:26:34;;;;;;;10.80;6.20;;;11.10;77.40;;;;;;5010867;28;20504;-71
2024/03/21 03:29:00;;;;;;;9.13;5.80;;;11.20;77.10;;;;;;5013552;28;20190;-71
2024/03/21 03:31:26;;;;;;;11.53;6.10;;;11.20;77.10;;;;;;5010886;28;20212;-70
2024/03/21 03:36:36;;;;;;;8.17;5.60;;;11.30;77.30;;;;;;5009238;28;20283;-70
2024/03/21 03:39:02;;;;;;;8.43;5.70;;;11.40;77.10;;;;;;5012245;28;20496;-71
2024/03/21 03:41:28;;;;;;;11.10;6.50;;;11.40;76.70;;;;;;5000433;28;20719;-71
2024/03/21 03:43:54;;;;;;;9.93;6.90;;;11.40;76.40;;;;;;5011012;28;20461;-72
2024/03/21 03:46:19;;;;;;;10.23;6.60;;;11.40;76.40;;;;;;5013012;28;20182;-71
2024/03/21 03:48:45;;;;;;;12.50;6.33;;;11.40;76.20;;;;;;5012566;28;20659;-71
2024/03/21 03:51:10;;;;;;;12.53;6.90;;;11.30;76.40;;;;;;5009073;28;20214;-70
2024/03/21 03:53:36;;;;;;;12.23;6.40;;;11.20;76.50;;;;;;5014217;28;20186;-71
2024/03/21 03:56:02;;;;;;;9.07;5.93;;;11.20;76.80;;;;;;5013032;28;20216;-71
2024/03/21 03:58:28;;;;;;;11.10;6.10;;;11.20;77.10;;;;;;5012923;28;20194;-71
2024/03/21 04:00:58;;;;;;;10.43;6.10;;;11.20;77.10;;;;;;5008975;28;20213;-71
2024/03/21 04:03:24;;;;;;;9.80;5.80;;;11.20;77.30;;;;;;5010262;28;20985;-70
2024/03/21 04:06:00;;;;;;;10.07;6.17;;;11.30;77.00;;;;;;5006047;28;20451;-71
2024/03/21 04:08:25;;;;;;;9.50;5.77;;;11.30;77.00;;;;;;5007866;28;20433;-71
2024/03/21 04:10:51;;;;;;;9.50;6.03;;;11.40;76.80;;;;;;5008806;28;20671;-71
2024/03/21 04:13:17;;;;;;;8.63;5.90;;;11.40;76.70;;;;;;5009296;28;20232;-72
2024/03/21 04:15:43;;;;;;;9.67;5.87;;;11.40;76.70;;;;;;5011382;28;20461;-71
2024/03/21 04:18:09;;;;;;;9.90;6.50;;;11.40;76.70;;;;;;5011990;28;20186;-71
2024/03/21 04:20:34;;;;;;;14.07;6.93;;;11.30;77.00;;;;;;5011404;28;20196;-70
2024/03/21 04:23:00;;;;;;;7.87;5.57;;;11.20;77.00;;;;;;5007955;28;20219;-71
2024/03/21 04:25:26;;;;;;;11.33;6.80;;;11.30;77.10;;;;;;5010199;28;20346;-71
2024/03/21 04:27:51;;;;;;;11.00;6.70;;;11.30;77.10;;;;;;5011795;28;20204;-71
2024/03/21 04:30:17;;;;;;;12.07;6.60;;;11.40;76.80;;;;;;5011969;28;20805;-70
2024/03/21 04:32:42;;;;;;;9.23;6.23;;;11.30;76.70;;;;;;5007139;28;20225;-70
2024/03/21 04:35:09;;;;;;;9.17;6.70;;;11.30;76.80;;;;;;5012330;28;20190;-70
2024/03/21 04:37:35;;;;;;;8.73;5.80;;;11.30;77.00;;;;;;5011437;28;20247;-70
2024/03/21 04:40:00;;;;;;;11.50;6.27;;;11.20;77.10;;;;;;5011019;28;20860;-71
2024/03/21 04:42:26;;;;;;;12.50;6.30;;;11.30;77.30;;;;;;5004242;28;20257;-70
2024/03/21 04:44:51;;;;;;;7.80;5.07;;;11.20;77.40;;;;;;5012816;28;20185;-70
2024/03/21 04:47:17;;;;;;;9.73;6.10;;;11.20;77.60;;;;;;5007382;28;20194;-71
2024/03/21 04:49:43;;;;;;;8.03;5.23;;;11.30;77.70;;;;;;5004443;28;20194;-71
2024/03/21 04:52:10;;;;;;;11.37;5.20;;;11.30;77.60;;;;;;5008716;28;20202;-71
2024/03/21 04:54:35;;;;;;;7.30;4.37;;;11.40;77.70;;;;;;5011827;28;20213;-70
2024/03/21 04:57:01;;;;;;;7.67;5.10;;;11.40;77.60;;;;;;5011719;28;20433;-72
2024/03/21 04:59:28;;;;;;;8.60;4.90;;;11.40;77.80;;;;;;5006750;28;20224;-70
2024/03/21 05:01:55;;;;;;;7.27;4.20;;;11.50;78.00;;;;;;5020798;23;20512;-71
2024/03/21 05:04:20;;;;;;;5.90;4.43;;;11.50;78.00;;;;;;5014139;28;21045;-73
2024/03/21 05:06:46;;;;;;;6.70;4.00;;;11.40;78.10;;;;;;5013040;28;20495;-72
2024/03/21 05:09:12;;;;;;;7.03;4.13;;;11.40;78.30;;;;;;5009180;28;20582;-72
2024/03/21 05:11:37;;;;;;;7.30;4.57;;;11.50;78.40;;;;;;5009508;28;20229;-71
2024/03/21 05:14:03;;;;;;;7.60;4.47;;;11.40;78.30;;;;;;5013827;28;20689;-71
2024/03/21 05:16:30;;;;;;;6.73;4.60;;;11.40;78.40;;;;;;5026868;28;20189;-72
2024/03/21 05:18:55;;;;;;;5.93;4.40;;;11.50;78.60;;;;;;5030998;28;20613;-70
2024/03/21 05:21:21;;;;;;;5.93;4.20;;;11.50;78.60;;;;;;5008863;28;20523;-70
2024/03/21 05:23:47;;;;;;;8.53;4.93;;;11.50;78.60;;;;;;5018515;28;20214;-72
2024/03/21 05:26:12;;;;;;;10.00;5.50;;;11.40;78.30;;;;;;5006278;28;20205;-71
2024/03/21 05:28:38;;;;;;;9.20;5.07;;;11.40;78.40;;;;;;5016239;28;20205;-72
2024/03/21 05:31:24;;;;;;;6.70;4.43;;;11.30;78.70;;;;;;5008005;28;20225;-72
2024/03/21 05:33:50;;;;;;;6.93;4.67;;;11.40;78.70;;;;;;5015149;28;20181;-71
2024/03/21 05:36:16;;;;;;;6.00;4.20;;;11.40;78.70;;;;;;5011440;28;20441;-71
2024/03/21 05:38:45;;;;;;;8.87;5.20;;;11.50;78.70;;;;;;5011127;28;20452;-72
2024/03/21 05:41:11;;;;;;;10.13;5.13;;;11.50;78.60;;;;;;5013321;28;21128;-71
2024/03/21 05:43:37;;;;;;;7.37;4.90;;;11.50;78.10;;;;;;5020822;28;20512;-71
2024/03/21 05:46:04;;;;;;;12.07;6.87;;;11.50;78.30;;;;;;5014980;28;20456;-72
2024/03/21 05:48:31;;;;;;;8.87;5.30;;;11.50;78.30;;;;;;5011313;28;20192;-69
2024/03/21 05:50:56;;;;;;;8.07;5.20;;;11.50;78.40;;;;;;5004881;28;21938;-71
2024/03/21 05:53:22;;;;;;;10.07;5.13;;;11.60;78.30;;;;;;5005221;28;20455;-71
2024/03/21 05:56:00;;;;;;;7.67;5.23;;;11.60;78.30;;;;;;5011757;28;20185;-71
2024/03/21 05:58:26;;;;;;;15.17;6.90;;;11.70;78.40;;;;;;5007482;28;20293;-71
2024/03/21 06:01:21;;;;;;;11.97;7.20;;;11.60;78.10;;;;;;5015483;28;22090;-71
2024/03/21 06:03:47;;;;;;;12.67;7.57;;;11.60;78.10;;;;;;5024497;28;20472;-71
2024/03/21 06:06:12;;;;;;;13.00;8.03;;;11.60;78.10;;;;;;5019785;28;20514;-72
2024/03/21 06:08:38;;;;;;;13.40;7.50;;;11.70;77.80;;;;;;5020652;28;20223;-70
2024/03/21 06:11:04;;;;;;;12.17;6.90;;;11.80;77.60;;;;;;5006046;28;20213;-72
2024/03/21 06:13:30;;;;;;;14.90;7.53;;;11.70;77.60;;;;;;5004700;28;20495;-72
2024/03/21 06:15:56;;;;;;;12.93;7.97;;;11.70;77.40;;;;;;5010118;28;20720;-71
2024/03/21 06:18:22;;;;;;;15.50;8.17;;;11.60;77.30;;;;;;5017400;28;20526;-71
2024/03/21 06:20:47;;;;;;;15.43;8.13;;;11.40;77.70;;;;;;5012011;28;20224;-71
2024/03/21 06:23:13;;;;;;;15.77;8.17;;;11.30;78.00;;;;;;5008527;28;20769;-72
2024/03/21 06:25:39;;;;;;;13.97;8.20;;;11.20;78.70;;;;;;5007169;28;20275;-72
2024/03/21 06:28:05;;;;;;;18.40;8.40;;;11.10;79.00;;;;;;5012832;28;20210;-72
2024/03/21 06:30:31;;;;;;;17.97;8.47;;;11.10;79.00;;;;;;5018853;28;20181;-69
2024/03/21 06:32:57;;;;;;;14.57;7.30;;;11.10;79.30;;;;;;5008836;28;21028;-72
2024/03/21 06:35:23;;;;;;;9.90;6.37;;;11.20;79.30;;;;;;5020144;28;20432;-72
2024/03/21 06:37:52;;;;;;;12.83;7.60;;;11.40;78.90;;;;;;5006044;28;20194;-72
2024/03/21 06:40:18;;;;;;;16.00;8.30;;;11.50;78.70;;;;;;5007252;28;20610;-71
2024/03/21 06:42:43;;;;;;;13.80;7.67;;;11.70;78.60;;;;;;5009786;28;20982;-71
2024/03/21 06:45:09;;;;;;;13.13;8.20;;;11.80;78.10;;;;;;5013673;28;20460;-72
2024/03/21 06:47:39;;;;;;;14.83;7.57;;;11.80;77.80;;;;;;5019316;28;20635;-72
2024/03/21 06:50:06;;;;;;;11.67;7.27;;;12.00;77.40;;;;;;5009638;28;20448;-70
2024/03/21 06:52:31;;;;;;;13.80;7.63;;;12.10;77.00;;;;;;5006393;28;20473;-70
2024/03/21 06:54:57;;;;;;;15.80;8.33;;;12.20;76.50;;;;;;5017750;28;20417;-71
2024/03/21 06:57:25;;;;;;;15.67;8.97;;;12.10;76.20;;;;;;5012617;28;20182;-72
2024/03/21 06:59:53;;;;;;;14.10;8.40;;;12.00;76.50;;;;;;5018756;28;20182;-70
2024/03/21 07:02:19;;;;;;;15.53;9.30;;;11.90;77.00;;;;;;5008614;28;20547;-71
2024/03/21 07:04:45;;;;;;;15.23;8.47;;;11.80;77.00;;;;;;5016478;28;20949;-73
2024/03/21 07:07:10;;;;;;;17.20;8.73;;;11.90;77.60;;;;;;5011898;28;20273;-70
2024/03/21 07:09:36;;;;;;;20.00;8.47;;;12.00;77.30;;;;;;5015408;28;20424;-72
2024/03/21 07:12:03;;;;;;;21.40;9.20;;;12.00;77.00;;;;;;5011782;28;20299;-72
2024/03/21 07:14:34;;;;;;;15.40;9.10;;;12.10;76.70;;;;;;5012235;28;20436;-72
2024/03/21 07:17:01;;;;;;;16.77;8.40;;;12.10;76.70;;;;;;5013693;28;20449;-73
2024/03/21 07:19:33;;;;;;;19.90;7.97;;;12.20;76.70;;;;;;5008102;28;20443;-73
2024/03/21 07:22:04;;;;;;;19.27;7.93;;;12.20;76.70;;;;;;5006468;28;20824;-73
2024/03/21 07:24:30;;;;;;;16.80;8.53;;;12.30;76.40;;;;;;5011150;28;20556;-73
2024/03/21 07:26:57;;;;;;;16.00;8.60;;;12.40;76.40;;;;;;5016027;28;20514;-72
2024/03/21 07:29:22;;;;;;;19.80;9.03;;;12.50;76.10;;;;;;5013776;28;20424;-73
2024/03/21 07:31:48;;;;;;;19.20;9.50;;;12.70;75.50;;;;;;5007608;28;20464;-72
2024/03/21 07:34:13;;;;;;;26.77;10.40;;;12.80;75.10;;;;;;5010445;28;20290;-71
2024/03/21 07:36:39;;;;;;;19.83;10.30;;;12.80;74.80;;;;;;5016760;28;20190;-72
2024/03/21 07:39:05;;;;;;;21.50;10.77;;;12.90;74.60;;;;;;5013883;28;20535;-70
2024/03/21 07:41:31;;;;;;;20.47;10.60;;;13.00;74.50;;;;;;5015930;28;20234;-72
2024/03/21 07:43:56;;;;;;;21.63;11.30;;;13.10;74.20;;;;;;5017623;28;20218;-72
2024/03/21 07:46:22;;;;;;;23.37;10.53;;;13.10;73.90;;;;;;5023320;28;20437;-72
2024/03/21 07:48:48;;;;;;;27.47;11.47;;;13.20;73.90;;;;;;5021935;28;20181;-73
2024/03/21 07:51:14;;;;;;;23.13;11.03;;;13.30;73.70;;;;;;5005556;28;20525;-71
2024/03/21 07:53:39;;;;;;;21.43;10.90;;;13.20;73.30;;;;;;5019615;28;20185;-70
2024/03/21 07:56:05;;;;;;;17.80;10.40;;;13.30;73.60;;;;;;5017451;28;20529;-71
2024/03/21 07:58:31;;;;;;;19.27;10.27;;;13.50;73.50;;;;;;5008931;28;20964;-72
2024/03/21 08:00:56;;;;;;;21.63;11.37;;;13.70;72.70;;;;;;5008432;28;20207;-71
2024/03/21 08:03:22;;;;;;;32.73;11.57;;;13.50;72.30;;;;;;5010033;28;20228;-73
2024/03/21 08:05:47;;;;;;;37.50;12.40;;;13.50;72.70;;;;;;5011098;28;20206;-71
2024/03/21 08:08:13;;;;;;;21.13;10.40;;;13.60;72.60;;;;;;5015715;28;20629;-69
2024/03/21 08:10:38;;;;;;;24.30;11.47;;;13.70;72.60;;;;;;5008127;28;20184;-70
2024/03/21 08:13:04;;;;;;;28.10;11.53;;;13.90;71.80;;;;;;5002788;28;20224;-72
2024/03/21 08:15:29;;;;;;;21.80;12.00;;;13.90;71.70;;;;;;5006950;28;20187;-72
2024/03/21 08:17:55;;;;;;;24.87;12.00;;;14.10;72.10;;;;;;5021422;28;20180;-70
2024/03/21 08:20:21;;;;;;;22.13;11.87;;;14.20;71.40;;;;;;5022648;28;20206;-72
2024/03/21 08:22:46;;;;;;;30.53;12.03;;;14.20;71.10;;;;;;5011365;28;20699;-70
2024/03/21 08:25:12;;;;;;;23.30;12.13;;;14.30;71.00;;;;;;5011275;28;20254;-72
2024/03/21 08:27:38;;;;;;;33.43;13.80;;;14.30;70.10;;;;;;5006846;28;20208;-72
2024/03/21 08:30:04;;;;;;;25.80;11.90;;;14.40;69.90;;;;;;5015974;28;20209;-69
2024/03/21 08:32:30;;;;;;;21.20;11.07;;;14.40;70.50;;;;;;5015134;28;20207;-70
2024/03/21 08:34:56;;;;;;;27.60;11.23;;;14.40;69.80;;;;;;5007465;28;20783;-71
2024/03/21 08:37:22;;;;;;;23.50;10.93;;;14.60;69.90;;;;;;5023473;28;20678;-72
2024/03/21 08:39:48;;;;;;;22.67;12.07;;;14.60;69.80;;;;;;5020261;28;20188;-71
2024/03/21 08:42:14;;;;;;;22.73;11.73;;;14.40;69.70;;;;;;5017963;28;20227;-71
2024/03/21 08:44:40;;;;;;;24.10;11.97;;;14.10;71.10;;;;;;5015835;28;20508;-71
2024/03/21 08:47:05;;;;;;;15.50;9.83;;;14.10;71.60;;;;;;5015153;28;20183;-72
2024/03/21 08:49:31;;;;;;;18.10;10.13;;;13.90;71.80;;;;;;5012188;28;20194;-72
2024/03/21 08:51:57;;;;;;;18.87;10.00;;;13.80;72.60;;;;;;5009025;28;20230;-72
2024/03/21 08:54:26;;;;;;;23.20;9.50;;;13.90;72.60;;;;;;5015865;28;20415;-71
2024/03/21 08:56:51;;;;;;;17.87;8.93;;;14.10;71.80;;;;;;5012897;28;20191;-71
2024/03/21 08:59:18;;;;;;;15.63;8.33;;;14.10;71.80;;;;;;5011996;28;20437;-72
2024/03/21 09:01:44;;;;;;;19.53;9.30;;;14.30;71.40;;;;;;5008382;28;20368;-72
2024/03/21 09:04:09;;;;;;;14.73;8.00;;;14.50;70.80;;;;;;5007959;28;20990;-71
2024/03/21 09:06:36;;;;;;;15.07;9.00;;;14.70;70.80;;;;;;5012980;28;20192;-72
2024/03/21 09:09:05;;;;;;;13.70;7.33;;;14.80;70.10;;;;;;5018247;28;20677;-70
2024/03/21 09:11:34;;;;;;;12.90;7.00;;;14.90;69.90;;;;;;5005815;28;20464;-72
2024/03/21 09:14:01;;;;;;;12.57;8.57;;;15.10;69.80;;;;;;5005914;28;20482;-73
2024/03/21 09:16:27;;;;;;;17.67;8.00;;;15.30;69.40;;;;;;5015304;28;20414;-72
2024/03/21 09:18:52;;;;;;;10.00;6.77;;;15.40;68.80;;;;;;5026413;28;20424;-71
2024/03/21 09:21:18;;;;;;;11.40;7.23;;;15.60;68.20;;;;;;5017866;28;20279;-71
2024/03/21 09:23:48;;;;;;;14.40;7.20;;;15.70;67.30;;;;;;5011897;28;20748;-70
2024/03/21 09:26:13;;;;;;;10.50;6.13;;;16.00;67.20;;;;;;5011671;28;20248;-72
2024/03/21 09:28:39;;;;;;;12.40;6.00;;;16.20;66.10;;;;;;5022788;28;20431;-73
2024/03/21 09:31:05;;;;;;;9.13;5.50;;;16.10;66.00;;;;;;5011376;28;20244;-71
2024/03/21 09:33:32;;;;;;;9.33;5.77;;;16.20;66.30;;;;;;5026042;28;20185;-73
2024/03/21 09:35:59;;;;;;;11.27;6.10;;;16.30;65.80;;;;;;5009144;28;20444;-72
2024/03/21 09:38:26;;;;;;;10.63;5.93;;;16.40;65.40;;;;;;5014747;28;20494;-70
2024/03/21 09:40:52;;;;;;;12.70;5.70;;;16.50;65.40;;;;;;5016447;28;20453;-70
2024/03/21 09:43:17;;;;;;;9.00;6.03;;;16.60;64.80;;;;;;5013680;28;20513;-72
2024/03/21 09:45:47;;;;;;;11.00;5.70;;;16.20;65.10;;;;;;5015130;28;20178;-72
2024/03/21 09:48:13;;;;;;;10.33;5.70;;;16.20;65.60;;;;;;5009755;28;20197;-71
2024/03/21 09:50:41;;;;;;;12.00;6.53;;;16.30;65.00;;;;;;5003006;28;20451;-70
2024/03/21 09:53:15;;;;;;;10.60;5.50;;;16.00;65.70;;;;;;5017833;28;20425;-72
2024/03/21 09:55:45;;;;;;;9.87;5.87;;;16.10;65.70;;;;;;5014404;28;20541;-69
2024/03/21 09:58:15;;;;;;;13.07;6.17;;;16.20;65.10;;;;;;5007986;28;20785;-70
2024/03/21 10:00:42;;;;;;;8.37;5.60;;;16.10;65.30;;;;;;5011481;28;21047;-71
2024/03/21 10:03:15;;;;;;;12.23;5.60;;;16.00;65.70;;;;;;5004675;28;20487;-72
2024/03/21 10:05:47;;;;;;;10.90;5.80;;;16.00;66.00;;;;;;5015340;28;20793;-72
2024/03/21 10:08:16;;;;;;;7.10;5.17;;;16.00;66.30;;;;;;5013063;28;20766;-71
2024/03/21 10:10:43;;;;;;;17.07;6.97;;;16.00;66.00;;;;;;5014069;28;20532;-71
2024/03/21 10:13:09;;;;;;;11.87;7.00;;;16.00;65.60;;;;;;5006862;28;20450;-70
2024/03/21 10:15:36;;;;;;;10.80;6.47;;;16.00;65.40;;;;;;5012213;28;20522;-70
2024/03/21 10:18:02;;;;;;;12.87;7.80;;;15.90;65.70;;;;;;5011475;28;20435;-72
2024/03/21 10:20:28;;;;;;;12.60;7.53;;;15.70;65.30;;;;;;5018283;28;20960;-71
2024/03/21 10:22:54;;;;;;;10.73;7.00;;;15.80;65.60;;;;;;5005337;28;20514;-70
2024/03/21 10:25:19;;;;;;;14.57;8.20;;;16.10;65.10;;;;;;5010449;28;20273;-71
2024/03/21 10:27:46;;;;;;;17.13;8.00;;;16.30;65.00;;;;;;5010007;28;20654;-71
2024/03/21 10:30:23;;;;;;;19.50;7.97;;;16.30;64.70;;;;;;5013794;28;20984;-70
2024/03/21 10:32:49;;;;;;;14.93;7.70;;;16.40;64.50;;;;;;5003178;28;20872;-71
2024/03/21 10:35:16;;;;;;;14.47;7.60;;;16.40;64.40;;;;;;5005796;28;20434;-72
2024/03/21 10:37:43;;;;;;;17.47;10.37;;;16.50;64.70;;;;;;5016571;28;20276;-72
2024/03/21 10:40:14;;;;;;;18.20;10.20;;;16.60;63.20;;;;;;5018690;28;20425;-70
2024/03/21 10:42:54;;;;;;;17.50;9.97;;;16.60;63.20;;;;;;5018499;28;20486;-72
2024/03/21 10:45:20;;;;;;;20.30;11.10;;;16.60;63.50;;;;;;5012399;28;20454;-71
2024/03/21 10:47:48;;;;;;;22.07;11.80;;;16.40;64.20;;;;;;5018770;28;20944;-72
2024/03/21 10:50:21;;;;;;;19.27;11.30;;;16.30;64.20;;;;;;5018089;28;20435;-71
2024/03/21 10:52:57;;;;;;;25.67;13.40;;;16.00;64.70;;;;;;5008178;28;20530;-72
2024/03/21 10:55:24;;;;;;;17.87;10.83;;;15.90;64.80;;;;;;5021429;28;20432;-69
2024/03/21 10:57:54;;;;;;;28.23;11.93;;;16.00;65.30;;;;;;5019145;28;20466;-71
2024/03/21 11:00:21;;;;;;;20.47;11.30;;;16.20;64.70;;;;;;5014471;28;20461;-72
2024/03/21 11:02:51;;;;;;;16.67;10.17;;;16.50;64.20;;;;;;5007965;28;20484;-72
2024/03/21 11:05:18;;;;;;;17.43;9.97;;;16.50;64.20;;;;;;5007823;28;20468;-71
2024/03/21 11:07:44;;;;;;;19.30;10.33;;;16.20;64.50;;;;;;5007577;28;20468;-72
2024/03/21 11:10:20;;;;;;;13.00;9.53;;;16.30;64.50;;;;;;5016310;28;20544;-71
2024/03/21 11:12:47;;;;;;;15.50;9.40;;;16.40;64.50;;;;;;5010535;28;20234;-71
2024/03/21 11:15:13;;;;;;;15.77;9.73;;;16.70;63.70;;;;;;5007951;28;20445;-72
2024/03/21 11:17:39;;;;;;;16.17;10.10;;;17.00;63.20;;;;;;5019010;28;20412;-72
2024/03/21 11:20:09;;;;;;;14.47;9.20;;;17.10;62.80;;;;;;5024584;28;20186;-71
2024/03/21 11:22:38;;;;;;;16.17;9.23;;;17.10;62.90;;;;;;5008895;28;20476;-72
2024/03/21 11:25:03;;;;;;;13.27;9.80;;;17.50;61.70;;;;;;5013523;28;20440;-72
2024/03/21 11:27:29;;;;;;;16.97;10.30;;;17.40;61.50;;;;;;5018986;28;20444;-70
2024/03/21 11:29:55;;;;;;;15.03;9.50;;;17.10;62.00;;;;;;5018640;28;20270;-71
2024/03/21 11:32:25;;;;;;;13.83;10.60;;;16.80;63.40;;;;;;5011034;28;20205;-71
2024/03/21 11:34:51;;;;;;;16.10;9.93;;;16.80;63.80;;;;;;5017386;28;20507;-72
2024/03/21 11:37:17;;;;;;;16.27;10.50;;;17.20;63.50;;;;;;5014162;28;20589;-72
2024/03/21 11:39:44;;;;;;;16.20;10.43;;;17.50;62.60;;;;;;5012598;28;20683;-71
2024/03/21 11:42:10;;;;;;;18.87;12.20;;;17.70;62.50;;;;;;5012591;28;20544;-71
2024/03/21 11:44:43;;;;;;;20.10;11.03;;;17.00;63.80;;;;;;5013858;28;21035;-71
2024/03/21 11:47:13;;;;;;;23.10;11.33;;;17.30;64.10;;;;;;5014241;28;20414;-72
2024/03/21 11:49:40;;;;;;;18.30;13.20;;;17.90;63.40;;;;;;5013362;28;20448;-71
2024/03/21 11:52:10;;;;;;;22.70;12.70;;;17.80;63.10;;;;;;5013179;28;20625;-70
2024/03/21 11:54:35;;;;;;;24.07;14.70;;;18.10;62.50;;;;;;5024877;28;20424;-73
2024/03/21 11:57:01;;;;;;;26.97;13.57;;;17.70;62.60;;;;;;5015033;28;21234;-71
2024/03/21 11:59:37;;;;;;;21.90;14.13;;;17.50;63.10;;;;;;5032536;28;20189;-69
2024/03/21 12:02:08;;;;;;;23.03;13.40;;;17.60;62.80;;;;;;5011452;28;20232;-71
2024/03/21 12:04:34;;;;;;;23.90;12.40;;;17.40;62.90;;;;;;5022042;28;20462;-71
2024/03/21 12:06:59;;;;;;;19.47;12.60;;;17.40;63.10;;;;;;5014969;28;20436;-71
2024/03/21 12:09:25;;;;;;;18.67;11.63;;;17.00;62.50;;;;;;5020879;28;20758;-72
2024/03/21 12:11:50;;;;;;;19.90;12.20;;;17.10;63.10;;;;;;5014051;28;20200;-72
2024/03/21 12:14:16;;;;;;;18.40;11.30;;;17.20;62.60;;;;;;5009919;28;20207;-72
2024/03/21 12:16:42;;;;;;;19.63;13.53;;;17.50;62.50;;;;;;5016592;28;20292;-71
2024/03/21 12:19:08;;;;;;;18.70;13.33;;;17.10;63.40;;;;;;5012574;28;20198;-72
2024/03/21 12:21:34;;;;;;;24.63;13.70;;;16.90;64.10;;;;;;5007317;28;20557;-73
2024/03/21 12:24:00;;;;;;;21.53;13.13;;;16.90;64.70;;;;;;5014988;28;20649;-71
2024/03/21 12:26:26;;;;;;;20.43;14.27;;;17.00;64.70;;;;;;5005983;28;20307;-73
2024/03/21 12:28:52;;;;;;;21.77;15.40;;;17.50;64.10;;;;;;5013673;28;20202;-72
2024/03/21 12:31:18;;;;;;;22.10;13.97;;;17.30;63.40;;;;;;5010092;28;20516;-70
2024/03/21 12:33:44;;;;;;;25.43;15.60;;;17.20;64.10;;;;;;5014098;28;20433;-71
2024/03/21 12:36:11;;;;;;;21.80;14.90;;;16.90;64.50;;;;;;5017031;28;20175;-72
2024/03/21 12:38:38;;;;;;;24.67;16.57;;;16.80;65.30;;;;;;5009472;28;20434;-71